Time;durP1;ratioP1;P1;durP2;ratioP2;P2;SDS_P1;SDS_P2;PMS_P1;PMS_P2;Temp;Humidity;BMP_temperature;BMP_pressure;BME280_temperature;BME280_humidity;BME280_pressure;Samples;Min_cycle;Max_cycle;Signal;HPM_P1;HPM_P2
2023/06/14 00:02:47;;;;;;;;;;;22.40;45.00;;;;;;8454416;28;19969;-72
2023/06/14 00:06:50;;;;;;;;;;;22.30;45.00;;;;;;8454974;28;20272;-72
2023/06/14 00:10:52;;;;;;;;;;;22.30;45.30;;;;;;8454385;27;19924;-71
2023/06/14 00:14:53;;;;;;;;;;;22.20;45.00;;;;;;8464468;28;19973;-72
2023/06/14 00:18:56;;;;;;;;;;;22.10;45.10;;;;;;8452334;27;20348;-71
2023/06/14 00:22:57;;;;;;;;;;;22.10;45.10;;;;;;8458604;27;19935;-71
2023/06/14 00:26:59;;;;;;;;;;;22.10;45.30;;;;;;8461170;27;19923;-72
2023/06/14 00:31:01;;;;;;;;;;;22.00;45.30;;;;;;8447863;28;19928;-71
2023/06/14 00:35:02;;;;;;;;;;;22.00;45.50;;;;;;8459749;28;19931;-72
2023/06/14 00:39:04;;;;;;;;;;;22.00;45.50;;;;;;8450333;27;19939;-72
2023/06/14 00:43:06;;;;;;;;;;;21.90;45.40;;;;;;8462741;27;19923;-71
2023/06/14 00:47:07;;;;;;;;;;;21.90;45.70;;;;;;8450496;28;19924;-72
2023/06/14 00:51:09;;;;;;;;;;;21.80;45.60;;;;;;8457151;28;19928;-72
2023/06/14 00:55:11;;;;;;;;;;;21.80;45.60;;;;;;8439208;28;19924;-72
2023/06/14 00:59:13;;;;;;;;;;;21.70;46.50;;;;;;8452877;27;19928;-72
2023/06/14 01:03:21;;;;;;;;;;;21.70;45.70;;;;;;8482291;27;20371;-72
2023/06/14 01:07:42;;;;;;;;;;;21.60;45.70;;;;;;8462166;28;19927;-72
2023/06/14 01:11:59;;;;;;;;;;;21.60;45.80;;;;;;8455484;28;20390;-72
2023/06/14 01:16:01;;;;;;;;;;;21.60;46.00;;;;;;8468072;27;19927;-71
2023/06/14 01:20:03;;;;;;;;;;;21.50;46.00;;;;;;8462975;28;19985;-71
2023/06/14 01:24:08;;;;;;;;;;;21.50;46.00;;;;;;8459096;28;19924;-71
2023/06/14 01:28:12;;;;;;;;;;;21.40;46.10;;;;;;8454548;28;19924;-71
2023/06/14 01:32:14;;;;;;;;;;;21.30;45.90;;;;;;8463077;27;19940;-72
2023/06/14 01:36:19;;;;;;;;;;;21.30;46.00;;;;;;8457023;28;19950;-72
2023/06/14 01:40:22;;;;;;;;;;;21.20;46.20;;;;;;8478745;27;20341;-71
2023/06/14 01:44:24;;;;;;;;;;;21.20;46.00;;;;;;8457137;28;19950;-72
2023/06/14 01:48:26;;;;;;;;;;;21.10;46.30;;;;;;8448543;28;19935;-71
2023/06/14 01:52:28;;;;;;;;;;;21.00;46.20;;;;;;8461248;27;19924;-71
2023/06/14 01:56:30;;;;;;;;;;;21.00;46.20;;;;;;8451251;28;20600;-71
2023/06/14 02:00:32;;;;;;;;;;;21.00;46.40;;;;;;8457058;28;20433;-72
2023/06/14 02:04:34;;;;;;;;;;;20.90;46.30;;;;;;8456854;28;19930;-72
2023/06/14 02:08:35;;;;;;;;;;;20.80;46.30;;;;;;8448559;28;19969;-71
2023/06/14 02:12:37;;;;;;;;;;;20.80;46.40;;;;;;8452786;28;19965;-72
2023/06/14 02:16:39;;;;;;;;;;;20.70;46.30;;;;;;8455980;28;19946;-71
2023/06/14 02:20:40;;;;;;;;;;;20.70;46.60;;;;;;8452731;28;20330;-71
2023/06/14 02:24:42;;;;;;;;;;;20.60;46.50;;;;;;8457631;27;19924;-72
2023/06/14 02:28:45;;;;;;;;;;;20.60;46.60;;;;;;8454211;28;19977;-71
2023/06/14 02:32:48;;;;;;;;;;;20.50;46.50;;;;;;8460822;28;20398;-71
2023/06/14 02:36:50;;;;;;;;;;;20.40;46.50;;;;;;8450050;28;20389;-71
2023/06/14 02:40:51;;;;;;;;;;;20.40;46.70;;;;;;8458619;27;19977;-72
2023/06/14 02:44:53;;;;;;;;;;;20.40;46.70;;;;;;8441724;27;19949;-71
2023/06/14 02:48:55;;;;;;;;;;;20.30;46.90;;;;;;8455343;28;19946;-71
2023/06/14 02:52:56;;;;;;;;;;;20.30;46.70;;;;;;8458953;28;20981;-71
2023/06/14 02:56:58;;;;;;;;;;;20.20;46.80;;;;;;8455180;27;20417;-72
2023/06/14 03:01:01;;;;;;;;;;;20.20;46.90;;;;;;8456941;28;19930;-71
2023/06/14 03:05:06;;;;;;;;;;;20.10;46.90;;;;;;8437649;28;19931;-72
2023/06/14 03:09:09;;;;;;;;;;;20.00;46.90;;;;;;8449124;27;19927;-71
2023/06/14 03:13:11;;;;;;;;;;;19.90;47.00;;;;;;8443688;28;20313;-71
2023/06/14 03:17:13;;;;;;;;;;;19.90;47.00;;;;;;8461145;27;20433;-71
2023/06/14 03:21:15;;;;;;;;;;;19.90;47.10;;;;;;8458547;27;19994;-71
2023/06/14 03:25:18;;;;;;;;;;;19.80;47.00;;;;;;8457258;28;19935;-71
2023/06/14 03:29:20;;;;;;;;;;;19.70;46.90;;;;;;8450746;28;19927;-71
2023/06/14 03:33:22;;;;;;;;;;;19.60;47.10;;;;;;8453923;28;19931;-71
2023/06/14 03:37:24;;;;;;;;;;;19.60;47.10;;;;;;8449510;28;19928;-71
2023/06/14 03:41:26;;;;;;;;;;;19.60;47.30;;;;;;8446432;28;19930;-71
2023/06/14 03:45:27;;;;;;;;;;;19.50;47.30;;;;;;8459764;28;19924;-71
2023/06/14 03:49:30;;;;;;;;;;;19.50;47.40;;;;;;8454808;28;19924;-71
2023/06/14 03:53:31;;;;;;;;;;;19.50;47.50;;;;;;8445772;28;19928;-72
2023/06/14 03:57:33;;;;;;;;;;;19.50;47.60;;;;;;8456833;28;19923;-71
2023/06/14 04:01:35;;;;;;;;;;;19.50;47.70;;;;;;8461964;27;19932;-71
2023/06/14 04:05:37;;;;;;;;;;;19.50;47.70;;;;;;8458428;28;19940;-71
2023/06/14 04:09:39;;;;;;;;;;;19.50;48.10;;;;;;8447664;28;20379;-72
2023/06/14 04:13:41;;;;;;;;;;;19.50;47.90;;;;;;8444224;28;19924;-71
2023/06/14 04:17:42;;;;;;;;;;;19.50;48.00;;;;;;8455303;28;19928;-71
2023/06/14 04:21:44;;;;;;;;;;;19.50;48.30;;;;;;8470927;27;20610;-71
2023/06/14 04:25:47;;;;;;;;;;;19.50;48.30;;;;;;8454701;28;19924;-72
2023/06/14 04:29:49;;;;;;;;;;;19.60;48.50;;;;;;8426750;27;20404;-71
2023/06/14 04:33:52;;;;;;;;;;;19.60;48.60;;;;;;8397303;28;19932;-71
2023/06/14 04:37:55;;;;;;;;;;;19.60;48.80;;;;;;8390212;28;19955;-71
2023/06/14 04:41:56;;;;;;;;;;;19.60;48.80;;;;;;8401425;28;20031;-71
2023/06/14 04:45:58;;;;;;;;;;;19.60;48.80;;;;;;8398161;28;19951;-72
2023/06/14 04:50:00;;;;;;;;;;;19.70;49.00;;;;;;8394725;28;19928;-71
2023/06/14 04:54:02;;;;;;;;;;;19.70;49.20;;;;;;8395857;28;19924;-71
2023/06/14 04:58:04;;;;;;;;;;;19.70;49.40;;;;;;8399000;28;19935;-72
2023/06/14 05:02:06;;;;;;;;;;;19.80;49.50;;;;;;8421318;28;20027;-71
2023/06/14 05:06:08;;;;;;;;;;;19.80;49.40;;;;;;8401888;28;20020;-71
2023/06/14 05:10:10;;;;;;;;;;;19.90;49.70;;;;;;8418439;28;19931;-71
2023/06/14 05:14:12;;;;;;;;;;;19.90;49.90;;;;;;8411694;28;19924;-71
2023/06/14 05:18:14;;;;;;;;;;;19.90;50.00;;;;;;8415852;28;20382;-71
2023/06/14 05:22:16;;;;;;;;;;;20.00;50.30;;;;;;8422631;28;19924;-71
2023/06/14 05:26:18;;;;;;;;;;;20.00;50.20;;;;;;8396856;28;19969;-71
2023/06/14 05:30:20;;;;;;;;;;;20.10;50.50;;;;;;8443983;28;20454;-71
2023/06/14 05:34:22;;;;;;;;;;;20.10;50.70;;;;;;8451195;28;19928;-71
2023/06/14 05:38:23;;;;;;;;;;;20.20;51.10;;;;;;8415316;28;20577;-71
2023/06/14 05:42:25;;;;;;;;;;;20.20;50.90;;;;;;8446773;28;19924;-71
2023/06/14 05:46:28;;;;;;;;;;;20.30;51.10;;;;;;8430751;28;19927;-71
2023/06/14 05:50:30;;;;;;;;;;;20.40;51.30;;;;;;8448649;28;19947;-71
2023/06/14 05:54:31;;;;;;;;;;;20.40;51.40;;;;;;8430880;28;19927;-72
2023/06/14 05:58:33;;;;;;;;;;;20.50;51.30;;;;;;8448806;28;19931;-71
2023/06/14 06:02:35;;;;;;;;;;;20.50;51.60;;;;;;8443065;28;19924;-71
2023/06/14 06:06:36;;;;;;;;;;;20.60;51.90;;;;;;8430653;28;19978;-71
2023/06/14 06:10:38;;;;;;;;;;;20.60;52.00;;;;;;8436447;28;20291;-72
2023/06/14 06:14:40;;;;;;;;;;;20.70;52.00;;;;;;8433656;28;20437;-71
2023/06/14 06:18:41;;;;;;;;;;;20.80;52.30;;;;;;8423912;28;19924;-71
2023/06/14 06:22:45;;;;;;;;;;;20.90;52.50;;;;;;8456183;28;19927;-71
2023/06/14 06:26:46;;;;;;;;;;;20.90;52.40;;;;;;8451799;28;19978;-72
2023/06/14 06:30:48;;;;;;;;;;;21.10;53.10;;;;;;8445405;28;19924;-71
2023/06/14 06:34:50;;;;;;;;;;;21.20;53.00;;;;;;8422926;28;19932;-72
2023/06/14 06:38:52;;;;;;;;;;;21.30;52.80;;;;;;8451860;28;19925;-70
2023/06/14 06:42:54;;;;;;;;;;;21.40;53.00;;;;;;8447952;28;19931;-71
2023/06/14 06:46:57;;;;;;;;;;;21.50;53.10;;;;;;8435964;28;19935;-71
2023/06/14 06:50:58;;;;;;;;;;;21.60;53.60;;;;;;8400276;28;20380;-70
2023/06/14 06:55:00;;;;;;;;;;;21.70;53.60;;;;;;8443854;28;20778;-70
2023/06/14 06:59:02;;;;;;;;;;;21.90;53.50;;;;;;8450937;28;20011;-72
2023/06/14 07:03:05;;;;;;;;;;;22.00;53.60;;;;;;8458942;28;19960;-71
2023/06/14 07:07:06;;;;;;;;;;;22.00;54.10;;;;;;8455634;28;19930;-70
2023/06/14 07:11:08;;;;;;;;;;;22.20;54.10;;;;;;8452686;28;19930;-70
2023/06/14 07:15:10;;;;;;;;;;;22.30;53.90;;;;;;8462989;28;19924;-71
2023/06/14 07:19:11;;;;;;;;;;;22.40;53.90;;;;;;8441798;28;19931;-70
2023/06/14 07:23:13;;;;;;;;;;;22.50;53.90;;;;;;8427818;28;19924;-71
2023/06/14 07:27:15;;;;;;;;;;;22.60;53.90;;;;;;8437418;28;19924;-70
2023/06/14 07:31:18;;;;;;;;;;;22.70;54.00;;;;;;8453004;28;19935;-70
2023/06/14 07:35:20;;;;;;;;;;;22.80;54.10;;;;;;8449077;28;19931;-70
2023/06/14 07:39:22;;;;;;;;;;;22.80;54.00;;;;;;8433943;28;19928;-72
2023/06/14 07:43:23;;;;;;;;;;;23.00;54.40;;;;;;8441273;28;19924;-72
2023/06/14 07:47:25;;;;;;;;;;;23.00;54.30;;;;;;8449873;28;19927;-72
2023/06/14 07:51:27;;;;;;;;;;;23.20;54.30;;;;;;8448042;28;20437;-70
2023/06/14 07:55:29;;;;;;;;;;;23.30;55.10;;;;;;8423064;28;19924;-71
2023/06/14 07:59:37;;;;;;;;;;;23.40;54.30;;;;;;8453718;28;20386;-71
2023/06/14 08:03:38;;;;;;;;;;;23.40;54.00;;;;;;8445909;28;19925;-71
2023/06/14 08:07:40;;;;;;;;;;;23.40;53.90;;;;;;8439989;28;20358;-72
2023/06/14 08:11:42;;;;;;;;;;;23.40;53.80;;;;;;8450125;28;20336;-72
2023/06/14 08:15:44;;;;;;;;;;;23.40;53.90;;;;;;8430195;28;19970;-71
2023/06/14 08:19:45;;;;;;;;;;;23.50;53.90;;;;;;8413900;28;19928;-71
2023/06/14 08:23:47;;;;;;;;;;;23.50;54.10;;;;;;8442874;28;20363;-70
2023/06/14 08:27:49;;;;;;;;;;;23.60;54.10;;;;;;8437986;28;19930;-71
2023/06/14 08:31:51;;;;;;;;;;;23.70;54.20;;;;;;8461567;28;19924;-72
2023/06/14 08:35:53;;;;;;;;;;;23.80;54.20;;;;;;8447878;28;19924;-71
2023/06/14 08:39:56;;;;;;;;;;;23.80;54.10;;;;;;8452471;28;20298;-71
2023/06/14 08:43:58;;;;;;;;;;;23.90;54.10;;;;;;8466563;28;19924;-72
2023/06/14 08:48:01;;;;;;;;;;;24.00;54.20;;;;;;8448171;28;19928;-71
2023/06/14 08:52:05;;;;;;;;;;;24.00;54.10;;;;;;8457910;28;19930;-73
2023/06/14 08:56:07;;;;;;;;;;;24.10;54.00;;;;;;8465172;28;19931;-71
2023/06/14 09:00:12;;;;;;;;;;;24.10;53.60;;;;;;8460356;28;19971;-71
2023/06/14 09:04:15;;;;;;;;;;;24.20;53.90;;;;;;8458462;28;20014;-70
2023/06/14 09:08:18;;;;;;;;;;;24.20;53.70;;;;;;8448961;28;20445;-70
2023/06/14 09:12:20;;;;;;;;;;;24.30;53.70;;;;;;8445281;28;19943;-71
2023/06/14 09:16:22;;;;;;;;;;;24.40;53.90;;;;;;8459907;28;19931;-71
2023/06/14 09:20:24;;;;;;;;;;;24.50;53.60;;;;;;8441563;28;19924;-71
2023/06/14 09:24:26;;;;;;;;;;;24.60;53.90;;;;;;8452845;28;19923;-71
2023/06/14 09:28:28;;;;;;;;;;;24.60;53.50;;;;;;8447209;28;20417;-71
2023/06/14 09:32:30;;;;;;;;;;;24.60;53.30;;;;;;8459204;28;19947;-71
2023/06/14 09:36:32;;;;;;;;;;;24.60;53.40;;;;;;8425440;28;19928;-71
2023/06/14 09:40:35;;;;;;;;;;;24.60;53.20;;;;;;8450430;28;19965;-72
2023/06/14 09:44:37;;;;;;;;;;;24.60;53.00;;;;;;8417008;28;19928;-73
2023/06/14 09:48:42;;;;;;;;;;;24.70;53.30;;;;;;8446428;28;19938;-71
2023/06/14 09:52:44;;;;;;;;;;;24.70;53.30;;;;;;8448801;28;19946;-71
2023/06/14 09:56:47;;;;;;;;;;;24.80;53.20;;;;;;8456339;28;20019;-70
2023/06/14 10:00:50;;;;;;;;;;;24.80;53.00;;;;;;8446294;28;20303;-70
2023/06/14 10:05:05;;;;;;;;;;;24.90;53.10;;;;;;8450645;28;19924;-73
2023/06/14 10:09:08;;;;;;;;;;;24.90;53.00;;;;;;8453218;28;19985;-71
2023/06/14 10:13:11;;;;;;;;;;;24.90;52.80;;;;;;8450643;28;19924;-71
2023/06/14 10:17:17;;;;;;;;;;;24.90;52.50;;;;;;8453656;28;19923;-70
2023/06/14 10:21:23;;;;;;;;;;;24.90;52.30;;;;;;8457423;28;20370;-71
2023/06/14 10:25:31;;;;;;;;;;;24.90;52.20;;;;;;8440004;28;20299;-72
2023/06/14 10:29:33;;;;;;;;;;;24.90;52.00;;;;;;8450595;28;20294;-71
2023/06/14 10:33:36;;;;;;;;;;;25.00;52.40;;;;;;8449641;28;19931;-71
2023/06/14 10:37:37;;;;;;;;;;;25.00;52.20;;;;;;8462823;28;19924;-72
2023/06/14 10:41:39;;;;;;;;;;;25.10;52.40;;;;;;8442197;28;19977;-72
2023/06/14 10:46:01;;;;;;;;;;;25.10;52.10;;;;;;8441708;28;19924;-72
2023/06/14 10:50:11;;;;;;;;;;;25.10;52.20;;;;;;8450297;28;19924;-72
2023/06/14 10:54:13;;;;;;;;;;;25.20;52.30;;;;;;8441506;28;19989;-72
2023/06/14 10:58:15;;;;;;;;;;;25.20;52.10;;;;;;8441568;28;20012;-71
2023/06/14 11:02:34;;;;;;;;;;;25.20;52.10;;;;;;8415011;28;19928;-71
2023/06/14 11:06:45;;;;;;;;;;;25.30;52.20;;;;;;8428931;28;19973;-72
2023/06/14 11:10:47;;;;;;;;;;;25.30;52.00;;;;;;8451496;28;20221;-71
2023/06/14 11:14:50;;;;;;;;;;;25.30;52.10;;;;;;8449344;28;19931;-71
2023/06/14 11:18:51;;;;;;;;;;;25.30;51.90;;;;;;8420478;28;20276;-71
2023/06/14 11:22:53;;;;;;;;;;;25.40;52.10;;;;;;8424532;28;20287;-72
2023/06/14 11:26:56;;;;;;;;;;;25.40;52.00;;;;;;8449563;28;20434;-71
2023/06/14 11:31:01;;;;;;;;;;;25.50;52.30;;;;;;8453152;28;19923;-72
2023/06/14 11:35:04;;;;;;;;;;;25.50;52.20;;;;;;8406342;28;20313;-71
2023/06/14 11:39:09;;;;;;;;;;;25.50;52.00;;;;;;8450437;28;19923;-70
2023/06/14 11:43:12;;;;;;;;;;;25.40;51.80;;;;;;8450691;28;20375;-71
2023/06/14 11:47:13;;;;;;;;;;;25.50;52.00;;;;;;8444310;27;20283;-73
2023/06/14 11:51:15;;;;;;;;;;;25.50;51.80;;;;;;8453289;28;19979;-71
2023/06/14 11:55:17;;;;;;;;;;;25.60;52.00;;;;;;8447353;27;20507;-71
2023/06/14 11:59:20;;;;;;;;;;;25.60;51.90;;;;;;8406330;28;20307;-73
2023/06/14 12:03:25;;;;;;;;;;;25.60;51.90;;;;;;8400942;28;19951;-72
2023/06/14 12:07:28;;;;;;;;;;;25.60;51.90;;;;;;8402943;28;21739;-71
2023/06/14 12:11:34;;;;;;;;;;;25.60;51.60;;;;;;8412180;28;20015;-72
2023/06/14 12:15:36;;;;;;;;;;;25.60;52.10;;;;;;8439059;28;19932;-72
2023/06/14 12:19:44;;;;;;;;;;;25.70;51.60;;;;;;8399513;28;19932;-72
2023/06/14 12:23:47;;;;;;;;;;;25.60;51.60;;;;;;8421955;28;19924;-73
2023/06/14 12:27:49;;;;;;;;;;;25.70;51.40;;;;;;8432395;28;19931;-72
2023/06/14 12:31:51;;;;;;;;;;;25.70;51.50;;;;;;8445555;28;20375;-71
2023/06/14 12:35:55;;;;;;;;;;;25.70;51.60;;;;;;8440725;28;19924;-71
2023/06/14 12:39:57;;;;;;;;;;;25.80;51.50;;;;;;8437218;28;19927;-72
2023/06/14 12:44:01;;;;;;;;;;;25.80;51.20;;;;;;8426208;28;20461;-73
2023/06/14 12:48:03;;;;;;;;;;;25.80;51.50;;;;;;8425535;28;20374;-72
2023/06/14 12:52:04;;;;;;;;;;;25.90;51.50;;;;;;8438708;28;19924;-72
2023/06/14 12:56:06;;;;;;;;;;;25.90;51.10;;;;;;8438505;28;20371;-72
2023/06/14 13:00:08;;;;;;;;;;;25.90;50.90;;;;;;8436679;28;19977;-72
2023/06/14 13:04:10;;;;;;;;;;;25.90;51.00;;;;;;8437937;28;19934;-71
2023/06/14 13:08:12;;;;;;;;;;;25.90;51.10;;;;;;8432780;28;19934;-72
2023/06/14 13:12:14;;;;;;;;;;;26.00;50.70;;;;;;8439838;28;19931;-73
2023/06/14 13:16:15;;;;;;;;;;;26.00;50.60;;;;;;8444775;28;19947;-72
2023/06/14 13:20:17;;;;;;;;;;;26.00;50.90;;;;;;8455153;28;19924;-71
2023/06/14 13:24:21;;;;;;;;;;;26.10;50.90;;;;;;8442767;27;19924;-72
2023/06/14 13:28:23;;;;;;;;;;;26.10;50.70;;;;;;8428236;28;19993;-73
2023/06/14 13:32:24;;;;;;;;;;;26.00;50.50;;;;;;8446062;28;20383;-71
2023/06/14 13:36:26;;;;;;;;;;;26.00;50.60;;;;;;8441794;28;19924;-72
2023/06/14 13:40:28;;;;;;;;;;;26.00;50.60;;;;;;8443015;28;20431;-72
2023/06/14 13:44:30;;;;;;;;;;;26.00;50.70;;;;;;8424970;28;19928;-72
2023/06/14 13:48:31;;;;;;;;;;;26.00;51.00;;;;;;8432047;28;20363;-71
2023/06/14 13:52:34;;;;;;;;;;;26.00;51.10;;;;;;8442677;28;19924;-70
2023/06/14 13:56:36;;;;;;;;;;;26.10;51.10;;;;;;8447789;28;19936;-72
2023/06/14 14:00:40;;;;;;;;;;;26.10;51.10;;;;;;8436375;28;19966;-71
2023/06/14 14:04:41;;;;;;;;;;;26.10;51.10;;;;;;8421759;28;19924;-72
2023/06/14 14:08:44;;;;;;;;;;;26.20;51.00;;;;;;8406609;28;19986;-71
2023/06/14 14:12:46;;;;;;;;;;;26.20;51.00;;;;;;8427408;28;20303;-71
2023/06/14 14:16:54;;;;;;;;;;;26.20;50.70;;;;;;8439134;28;20009;-72
2023/06/14 14:20:56;;;;;;;;;;;26.20;50.70;;;;;;8422407;28;19932;-72
2023/06/14 14:24:57;;;;;;;;;;;26.30;50.90;;;;;;8410854;28;19959;-72
2023/06/14 14:28:59;;;;;;;;;;;26.30;51.00;;;;;;8407164;28;19924;-71
2023/06/14 14:33:03;;;;;;;;;;;26.30;51.00;;;;;;8430967;28;20137;-72
2023/06/14 14:37:05;;;;;;;;;;;26.30;51.00;;;;;;8438527;28;20252;-72
2023/06/14 14:41:06;;;;;;;;;;;26.40;51.10;;;;;;8439227;27;19924;-71
2023/06/14 14:45:08;;;;;;;;;;;26.40;51.00;;;;;;8424421;28;20402;-72
2023/06/14 14:49:10;;;;;;;;;;;26.50;51.10;;;;;;8434499;27;19923;-72
2023/06/14 14:53:11;;;;;;;;;;;26.60;50.90;;;;;;8440626;28;19931;-73
2023/06/14 14:57:13;;;;;;;;;;;26.60;50.70;;;;;;8424001;28;19932;-72
2023/06/14 15:01:15;;;;;;;;;;;26.70;50.70;;;;;;8435138;28;19938;-72
2023/06/14 15:05:17;;;;;;;;;;;26.70;50.70;;;;;;8427675;28;19924;-71
2023/06/14 15:09:19;;;;;;;;;;;26.70;50.70;;;;;;8427682;28;19932;-72
2023/06/14 15:13:22;;;;;;;;;;;26.70;50.30;;;;;;8414389;28;20368;-74
2023/06/14 15:17:24;;;;;;;;;;;26.70;50.60;;;;;;8422615;28;19927;-72
2023/06/14 15:21:26;;;;;;;;;;;26.80;50.30;;;;;;8416573;28;19939;-72
2023/06/14 15:25:28;;;;;;;;;;;26.80;50.50;;;;;;8413032;28;19977;-71
2023/06/14 15:29:30;;;;;;;;;;;26.80;50.20;;;;;;8412200;28;19925;-72
2023/06/14 15:33:31;;;;;;;;;;;26.80;50.30;;;;;;8417653;28;19932;-71
2023/06/14 15:37:33;;;;;;;;;;;26.80;50.30;;;;;;8426385;28;19928;-72
2023/06/14 15:41:35;;;;;;;;;;;27.00;50.30;;;;;;8411260;28;20352;-72
2023/06/14 15:45:37;;;;;;;;;;;27.10;50.40;;;;;;8429571;28;19939;-72
2023/06/14 15:49:39;;;;;;;;;;;27.10;50.50;;;;;;8419708;28;19939;-72
2023/06/14 15:53:41;;;;;;;;;;;27.20;50.30;;;;;;8418643;28;19985;-72
2023/06/14 15:57:43;;;;;;;;;;;27.30;50.10;;;;;;8412421;28;20407;-71
2023/06/14 16:01:44;;;;;;;;;;;27.40;50.00;;;;;;8415906;28;19928;-71
2023/06/14 16:05:46;;;;;;;;;;;27.50;50.00;;;;;;8390115;28;20358;-71
2023/06/14 16:09:48;;;;;;;;;;;27.90;50.30;;;;;;8416183;28;19924;-71
2023/06/14 16:13:49;;;;;;;;;;;28.20;50.10;;;;;;8422437;28;19928;-71
2023/06/14 16:17:51;;;;;;;;;;;28.30;50.30;;;;;;8425832;28;20029;-72
2023/06/14 16:21:53;;;;;;;;;;;28.40;50.00;;;;;;8427626;28;19934;-72
2023/06/14 16:25:54;;;;;;;;;;;28.50;50.00;;;;;;8429345;28;19930;-72
2023/06/14 16:29:56;;;;;;;;;;;28.60;50.10;;;;;;8398705;28;20441;-72
2023/06/14 16:33:58;;;;;;;;;;;28.80;50.60;;;;;;8416760;28;19924;-71
2023/06/14 16:37:59;;;;;;;;;;;29.10;51.40;;;;;;8397780;28;19928;-72
2023/06/14 16:42:01;;;;;;;;;;;29.20;52.20;;;;;;8418911;28;20219;-73
2023/06/14 16:46:03;;;;;;;;;;;29.50;53.30;;;;;;8408751;28;20337;-72
2023/06/14 16:50:05;;;;;;;;;;;29.60;54.20;;;;;;8432376;28;19927;-72
2023/06/14 16:54:07;;;;;;;;;;;29.70;55.20;;;;;;8432056;28;19978;-72
2023/06/14 16:58:08;;;;;;;;;;;29.70;54.90;;;;;;8408692;28;19940;-71
2023/06/14 17:02:10;;;;;;;;;;;29.70;55.20;;;;;;8430011;28;19932;-72
2023/06/14 17:06:12;;;;;;;;;;;29.60;55.10;;;;;;8440289;28;19931;-72
2023/06/14 17:10:13;;;;;;;;;;;29.40;54.60;;;;;;8430582;28;19924;-72
2023/06/14 17:14:15;;;;;;;;;;;29.10;54.10;;;;;;8414951;28;19936;-72
2023/06/14 17:18:17;;;;;;;;;;;28.80;53.40;;;;;;8415450;28;19931;-72
2023/06/14 17:22:19;;;;;;;;;;;28.60;52.50;;;;;;8428997;28;19978;-73
2023/06/14 17:26:21;;;;;;;;;;;28.40;52.20;;;;;;8435809;28;19923;-72
2023/06/14 17:30:22;;;;;;;;;;;28.20;51.70;;;;;;8420012;28;19935;-73
2023/06/14 17:34:24;;;;;;;;;;;28.00;51.10;;;;;;8431928;28;19924;-72
2023/06/14 17:38:27;;;;;;;;;;;27.80;50.70;;;;;;8420176;28;19924;-72
2023/06/14 17:42:29;;;;;;;;;;;27.70;50.40;;;;;;8441260;28;20387;-71
2023/06/14 17:46:30;;;;;;;;;;;27.60;50.20;;;;;;8421617;28;19928;-72
2023/06/14 17:50:34;;;;;;;;;;;27.50;50.10;;;;;;8433259;28;19928;-72
2023/06/14 17:54:35;;;;;;;;;;;27.40;49.80;;;;;;8444118;28;19928;-72
2023/06/14 17:58:37;;;;;;;;;;;27.30;49.70;;;;;;8430926;28;20386;-72
2023/06/14 18:02:39;;;;;;;;;;;27.20;49.40;;;;;;8435455;28;19924;-72
2023/06/14 18:06:40;;;;;;;;;;;27.10;49.10;;;;;;8423382;28;19949;-71
2023/06/14 18:10:42;;;;;;;;;;;27.10;49.20;;;;;;8443763;28;20405;-71
2023/06/14 18:14:44;;;;;;;;;;;27.00;49.00;;;;;;8438132;28;19933;-72
2023/06/14 18:18:46;;;;;;;;;;;26.90;49.00;;;;;;8437445;28;19985;-73
2023/06/14 18:22:48;;;;;;;;;;;26.80;48.70;;;;;;8432833;28;19924;-73
2023/06/14 18:26:50;;;;;;;;;;;26.80;48.80;;;;;;8404939;28;19932;-72
2023/06/14 18:30:52;;;;;;;;;;;26.80;48.70;;;;;;8377971;28;19932;-72
2023/06/14 18:34:54;;;;;;;;;;;26.70;48.60;;;;;;8396161;28;19924;-73
2023/06/14 18:38:55;;;;;;;;;;;26.60;48.50;;;;;;8374364;28;19925;-71
2023/06/14 18:42:57;;;;;;;;;;;26.50;48.50;;;;;;8382853;28;19931;-73
2023/06/14 18:46:59;;;;;;;;;;;26.40;48.40;;;;;;8395486;28;19928;-73
2023/06/14 18:51:00;;;;;;;;;;;26.40;48.50;;;;;;8399835;28;19971;-72
2023/06/14 18:55:02;;;;;;;;;;;26.30;48.50;;;;;;8400780;28;19998;-74
2023/06/14 18:59:06;;;;;;;;;;;26.20;48.50;;;;;;8395118;28;19933;-73
2023/06/14 19:03:07;;;;;;;;;;;26.10;48.50;;;;;;8398356;28;20265;-73
2023/06/14 19:07:09;;;;;;;;;;;26.00;48.50;;;;;;8384567;28;20076;-73
2023/06/14 19:11:11;;;;;;;;;;;25.90;48.50;;;;;;8400724;28;20282;-72
2023/06/14 19:15:13;;;;;;;;;;;25.90;48.50;;;;;;8405956;28;19986;-72
2023/06/14 19:19:15;;;;;;;;;;;25.80;48.50;;;;;;8407556;28;20265;-72
2023/06/14 19:23:17;;;;;;;;;;;25.70;48.60;;;;;;8407386;28;19954;-72
2023/06/14 19:27:18;;;;;;;;;;;25.70;48.60;;;;;;8420797;28;19950;-73
2023/06/14 19:31:20;;;;;;;;;;;25.60;48.60;;;;;;8404114;28;20364;-73
2023/06/14 19:35:22;;;;;;;;;;;25.60;48.60;;;;;;8436321;27;19959;-73
2023/06/14 19:39:24;;;;;;;;;;;25.50;48.60;;;;;;8425873;28;20574;-73
2023/06/14 19:43:25;;;;;;;;;;;25.40;48.60;;;;;;8423738;28;19924;-73
2023/06/14 19:47:27;;;;;;;;;;;25.30;48.60;;;;;;8421917;28;19977;-72
2023/06/14 19:51:29;;;;;;;;;;;25.20;48.80;;;;;;8414945;28;19973;-72
2023/06/14 19:55:31;;;;;;;;;;;25.00;48.70;;;;;;8414414;28;19969;-72
2023/06/14 19:59:33;;;;;;;;;;;24.90;48.90;;;;;;8401087;28;19928;-73
2023/06/14 20:03:35;;;;;;;;;;;24.70;48.80;;;;;;8424952;28;19927;-72
2023/06/14 20:07:37;;;;;;;;;;;24.50;48.80;;;;;;8414625;28;19928;-73
2023/06/14 20:11:39;;;;;;;;;;;24.40;49.00;;;;;;8405450;28;19931;-72
2023/06/14 20:15:41;;;;;;;;;;;24.20;49.00;;;;;;8421238;28;19933;-72
2023/06/14 20:19:43;;;;;;;;;;;24.10;49.10;;;;;;8419292;28;20011;-72
2023/06/14 20:23:45;;;;;;;;;;;24.00;49.20;;;;;;8437490;28;19949;-72
2023/06/14 20:27:47;;;;;;;;;;;23.80;49.20;;;;;;8410207;28;20327;-72
2023/06/14 20:31:49;;;;;;;;;;;23.70;49.40;;;;;;8412974;28;19977;-72
2023/06/14 20:35:51;;;;;;;;;;;23.60;49.40;;;;;;8421803;28;20333;-72
2023/06/14 20:39:53;;;;;;;;;;;23.50;49.50;;;;;;8398722;28;19927;-72
2023/06/14 20:43:57;;;;;;;;;;;23.40;49.50;;;;;;8415823;28;19932;-72
2023/06/14 20:47:59;;;;;;;;;;;23.20;49.40;;;;;;8399111;28;19924;-72
2023/06/14 21:02:15;;;;;;;;;;;22.90;49.60;;;;;;8413670;28;19935;-72
2023/06/14 21:06:17;;;;;;;;;;;22.70;49.60;;;;;;8409445;28;19927;-72
2023/06/14 21:10:19;;;;;;;;;;;22.60;49.80;;;;;;8411730;28;20381;-71
2023/06/14 21:14:21;;;;;;;;;;;22.50;49.90;;;;;;8419624;28;20246;-71
2023/06/14 21:18:23;;;;;;;;;;;22.50;50.00;;;;;;8396515;28;19927;-71
2023/06/14 21:22:24;;;;;;;;;;;22.40;50.00;;;;;;8408690;28;20380;-72
2023/06/14 21:26:26;;;;;;;;;;;22.40;50.20;;;;;;8409302;28;19986;-71
2023/06/14 21:30:35;;;;;;;;;;;22.30;50.20;;;;;;8373480;28;20537;-72
2023/06/14 21:34:40;;;;;;;;;;;22.20;50.20;;;;;;8361586;28;20473;-72
2023/06/14 21:38:42;;;;;;;;;;;22.10;50.10;;;;;;8389941;28;19932;-72
2023/06/14 21:42:44;;;;;;;;;;;22.00;50.10;;;;;;8371637;28;20270;-72
2023/06/14 21:46:45;;;;;;;;;;;21.90;50.10;;;;;;8362820;28;19931;-71
2023/06/14 21:50:48;;;;;;;;;;;21.80;50.10;;;;;;8380362;28;19930;-72
2023/06/14 21:54:53;;;;;;;;;;;21.70;50.20;;;;;;8377086;28;19929;-72
2023/06/14 21:58:55;;;;;;;;;;;21.60;50.20;;;;;;8352418;28;19970;-72
2023/06/14 22:02:57;;;;;;;;;;;21.60;50.30;;;;;;8372597;28;19940;-72
2023/06/14 22:06:58;;;;;;;;;;;21.50;50.40;;;;;;8355253;28;20043;-71
2023/06/14 22:11:09;;;;;;;;;;;21.50;50.60;;;;;;8374129;28;19933;-72
2023/06/14 22:15:12;;;;;;;;;;;21.40;50.60;;;;;;8374639;28;20310;-72
2023/06/14 22:19:15;;;;;;;;;;;21.40;50.80;;;;;;8358668;28;19971;-72
2023/06/14 22:23:16;;;;;;;;;;;21.30;50.80;;;;;;8392329;28;19924;-71
2023/06/14 22:27:20;;;;;;;;;;;21.30;51.00;;;;;;8386760;28;19928;-72
2023/06/14 22:31:22;;;;;;;;;;;21.30;51.20;;;;;;8418809;28;20006;-72
2023/06/14 22:35:24;;;;;;;;;;;21.20;51.30;;;;;;8413923;28;19924;-72
2023/06/14 22:39:26;;;;;;;;;;;21.20;51.50;;;;;;8426324;28;19928;-72
2023/06/14 22:43:28;;;;;;;;;;;21.20;51.50;;;;;;8443042;28;19982;-71
2023/06/14 22:47:30;;;;;;;;;;;21.20;51.30;;;;;;8415794;28;19924;-71
2023/06/14 22:51:31;;;;;;;;;;;21.10;51.50;;;;;;8410444;28;19924;-72
2023/06/14 22:55:33;;;;;;;;;;;21.00;51.40;;;;;;8414583;28;20015;-72
2023/06/14 22:59:35;;;;;;;;;;;21.00;51.40;;;;;;8419396;28;19935;-72
2023/06/14 23:03:37;;;;;;;;;;;20.90;51.50;;;;;;8439414;28;19974;-71
2023/06/14 23:07:39;;;;;;;;;;;20.80;51.50;;;;;;8419938;28;19973;-72
2023/06/14 23:11:42;;;;;;;;;;;20.70;51.60;;;;;;8424612;28;19931;-72
2023/06/14 23:15:43;;;;;;;;;;;20.70;51.80;;;;;;8405617;28;19928;-72
2023/06/14 23:19:45;;;;;;;;;;;20.60;52.60;;;;;;8419330;28;19962;-72
2023/06/14 23:23:47;;;;;;;;;;;20.60;52.10;;;;;;8405798;28;20383;-71
2023/06/14 23:27:49;;;;;;;;;;;20.60;52.20;;;;;;8406657;28;20055;-72
2023/06/14 23:31:52;;;;;;;;;;;20.60;52.30;;;;;;8428201;28;19963;-72
2023/06/14 23:35:54;;;;;;;;;;;20.60;52.10;;;;;;8420130;28;20291;-71
2023/06/14 23:39:56;;;;;;;;;;;20.50;52.00;;;;;;8426578;28;20014;-71